createdAt,value
2022-08-19T00:01:56.276Z,97533.14
2022-08-19T00:04:28.635Z,97540.67
2022-08-19T00:06:55.548Z,97536.30
2022-08-19T00:09:24.166Z,97531.98
2022-08-19T00:11:52.897Z,97534.86
2022-08-19T00:14:21.218Z,97532.31
2022-08-19T00:16:49.087Z,97528.95
2022-08-19T00:19:16.972Z,97530.98
2022-08-19T00:21:43.880Z,97537.74
2022-08-19T00:24:13.631Z,97549.42
2022-08-19T00:26:42.727Z,97554.78
2022-08-19T00:29:13.179Z,97553.98
2022-08-19T00:31:42.021Z,97553.18
2022-08-19T00:34:09.927Z,97547.05
2022-08-19T00:36:37.736Z,97542.38
2022-08-19T00:39:04.673Z,97546.48
2022-08-19T00:41:31.823Z,97554.70
2022-08-19T00:44:12.929Z,97559.35
2022-08-19T00:46:43.809Z,97559.09
2022-08-19T00:49:21.775Z,97554.25
2022-08-19T00:51:53.757Z,97550.30
2022-08-19T00:54:26.548Z,97552.80
2022-08-19T00:57:00.253Z,97551.70
2022-08-19T00:59:58.798Z,97545.30
2022-08-19T01:02:17.304Z,97549.46
2022-08-19T01:04:44.189Z,97559.66
2022-08-19T01:07:14.986Z,97564.85
2022-08-19T01:09:45.232Z,97560.39
2022-08-19T01:12:12.101Z,97561.65
2022-08-19T01:14:40.738Z,97557.73
2022-08-19T01:17:12.172Z,97558.63
2022-08-19T01:19:43.380Z,97558.12
2022-08-19T01:22:33.875Z,97561.50
2022-08-19T01:25:02.314Z,97563.17
2022-08-19T01:27:44.018Z,97560.44
2022-08-19T01:30:35.116Z,97563.86
2022-08-19T01:33:05.584Z,97565.20
2022-08-19T01:35:32.992Z,97560.98
2022-08-19T01:38:08.096Z,97557.58
2022-08-19T01:40:40.697Z,97559.00
2022-08-19T01:43:08.240Z,97568.20
2022-08-19T01:45:36.340Z,97563.15
2022-08-19T01:48:04.108Z,97549.77
2022-08-19T01:50:33.095Z,97550.60
2022-08-19T01:53:07.640Z,97560.52
2022-08-19T01:55:42.080Z,97561.91
2022-08-19T01:58:28.443Z,97560.85
2022-08-19T02:00:58.436Z,97567.77
2022-08-19T02:03:25.387Z,97572.09
2022-08-19T02:05:59.902Z,97566.65
2022-08-19T02:08:28.753Z,97564.88
2022-08-19T02:10:56.991Z,97573.23
2022-08-19T02:13:27.436Z,97583.33
2022-08-19T02:15:54.608Z,97579.89
2022-08-19T02:18:21.451Z,97573.28
2022-08-19T02:20:55.619Z,97565.84
2022-08-19T02:23:22.416Z,97573.27
2022-08-19T02:25:49.405Z,97571.28
2022-08-19T02:28:18.774Z,97563.69
2022-08-19T02:30:48.157Z,97563.52
2022-08-19T02:33:15.937Z,97569.16
2022-08-19T02:35:47.450Z,97574.08
2022-08-19T02:38:27.038Z,97573.05
2022-08-19T02:41:06.022Z,97571.37
2022-08-19T02:43:37.308Z,97575.83
2022-08-19T02:46:21.637Z,97576.14
2022-08-19T02:48:54.545Z,97577.52
2022-08-19T02:51:23.938Z,97579.50
2022-08-19T02:53:51.429Z,97579.40
2022-08-19T02:56:20.067Z,97578.45
2022-08-19T02:58:48.800Z,97582.73
2022-08-19T03:01:29.646Z,97588.64
2022-08-19T03:03:59.652Z,97584.09
2022-08-19T03:06:27.816Z,97586.39
2022-08-19T03:08:55.857Z,97583.77
2022-08-19T03:11:30.208Z,97584.04
2022-08-19T03:13:58.915Z,97579.27
2022-08-19T03:16:29.328Z,97584.90
2022-08-19T03:19:02.042Z,97596.93
2022-08-19T03:21:32.733Z,97599.23
2022-08-19T03:24:07.401Z,97595.73
2022-08-19T03:26:38.296Z,97596.83
2022-08-19T03:29:06.593Z,97593.67
2022-08-19T03:31:44.320Z,97593.67
2022-08-19T03:34:18.490Z,97593.44
2022-08-19T03:36:47.065Z,97596.42
2022-08-19T03:39:15.041Z,97601.19
2022-08-19T03:41:46.473Z,97600.86
2022-08-19T03:44:20.968Z,97596.61
2022-08-19T03:46:53.872Z,97590.82
2022-08-19T03:49:28.277Z,97601.95
2022-08-19T03:51:58.304Z,97610.02
2022-08-19T03:54:27.001Z,97604.90
2022-08-19T03:56:56.308Z,97600.36
2022-08-19T03:59:30.271Z,97607.95
2022-08-19T04:01:59.957Z,97613.08
2022-08-19T04:04:29.366Z,97609.36
2022-08-19T04:06:57.202Z,97610.66
2022-08-19T04:09:24.494Z,97620.33
2022-08-19T04:11:55.240Z,97623.27
2022-08-19T04:14:29.795Z,97624.58
2022-08-19T04:16:56.811Z,97623.67
2022-08-19T04:19:23.800Z,97621.60
2022-08-19T04:21:53.280Z,97630.53
2022-08-19T04:24:22.324Z,97636.23
2022-08-19T04:26:49.812Z,97632.83
2022-08-19T04:29:25.300Z,97629.73
2022-08-19T04:31:54.982Z,97635.73
2022-08-19T04:34:25.583Z,97638.36
2022-08-19T04:36:56.064Z,97631.23
2022-08-19T04:39:48.410Z,97628.77
2022-08-19T04:42:37.035Z,97634.02
2022-08-19T04:45:12.386Z,97633.13
2022-08-19T04:47:48.253Z,97625.84
2022-08-19T04:50:27.975Z,97627.77
2022-08-19T04:52:56.534Z,97632.30
2022-08-19T04:55:26.031Z,97626.39
2022-08-19T04:57:54.961Z,97625.75
2022-08-19T05:00:22.900Z,97619.09
2022-08-19T05:02:49.863Z,97619.80
2022-08-19T05:05:17.863Z,97620.30
2022-08-19T05:07:44.914Z,97611.55
2022-08-19T05:10:12.060Z,97611.48
2022-08-19T05:12:39.556Z,97613.83
2022-08-19T05:15:08.856Z,97609.66
2022-08-19T05:17:38.852Z,97607.53
2022-08-19T05:20:27.041Z,97607.42
2022-08-19T05:22:54.306Z,97603.96
2022-08-19T05:25:21.988Z,97607.07
2022-08-19T05:27:49.784Z,97609.11
2022-08-19T05:30:17.363Z,97604.94
2022-08-19T05:32:44.185Z,97603.77
2022-08-19T05:35:12.061Z,97611.72
2022-08-19T05:37:42.872Z,97610.92
2022-08-19T05:40:11.539Z,97606.17
2022-08-19T05:42:38.711Z,97604.04
2022-08-19T05:45:07.063Z,97601.95
2022-08-19T05:47:33.891Z,97600.02
2022-08-19T05:50:02.520Z,97598.75
2022-08-19T05:52:29.580Z,97599.42
2022-08-19T05:54:57.494Z,97604.39
2022-08-19T05:57:25.274Z,97602.70
2022-08-19T05:59:58.529Z,97608.95
2022-08-19T06:02:28.071Z,97612.52
2022-08-19T06:04:55.064Z,97612.37
2022-08-19T06:07:22.943Z,97612.04
2022-08-19T06:10:00.436Z,97611.73
2022-08-19T06:12:34.537Z,97613.14
2022-08-19T06:15:12.984Z,97607.73
2022-08-19T06:17:40.157Z,97603.10
2022-08-19T06:20:12.251Z,97600.19
2022-08-19T06:22:40.718Z,97601.49
2022-08-19T06:25:09.544Z,97595.90
2022-08-19T06:27:42.050Z,97595.91
2022-08-19T06:30:15.748Z,97592.12
2022-08-19T06:32:43.091Z,97591.98
2022-08-19T06:35:10.130Z,97591.90
2022-08-19T06:37:40.859Z,97593.55
2022-08-19T06:40:12.910Z,97597.33
2022-08-19T06:42:40.016Z,97599.45
2022-08-19T06:45:15.114Z,97602.42
2022-08-19T06:47:46.496Z,97608.16
2022-08-19T06:50:15.333Z,97607.45
2022-08-19T06:52:42.219Z,97610.70
2022-08-19T06:55:09.549Z,97606.98
2022-08-19T06:57:36.573Z,97610.05
2022-08-19T07:00:12.987Z,97608.71
2022-08-19T07:02:48.025Z,97608.43
2022-08-19T07:05:23.074Z,97601.19
2022-08-19T07:07:50.943Z,97602.79
2022-08-19T07:10:19.496Z,97603.92
2022-08-19T07:12:46.956Z,97607.58
2022-08-19T07:15:13.869Z,97606.69
2022-08-19T07:17:42.001Z,97610.39
2022-08-19T07:20:10.462Z,97609.73
2022-08-19T07:22:39.542Z,97611.30
2022-08-19T07:25:09.635Z,97616.66
2022-08-19T07:27:37.545Z,97619.30
2022-08-19T07:30:11.595Z,97615.84
2022-08-19T07:32:40.402Z,97614.28
2022-08-19T07:35:09.338Z,97612.67
2022-08-19T07:37:38.633Z,97618.29
2022-08-19T07:40:08.294Z,97618.35
2022-08-19T07:42:35.196Z,97617.30
2022-08-19T07:45:02.298Z,97622.61
2022-08-19T07:47:48.288Z,97624.55
2022-08-19T07:50:19.714Z,97622.91
2022-08-19T07:52:49.065Z,97617.18
2022-08-19T07:55:41.655Z,97611.41
2022-08-19T07:58:08.940Z,97604.13
2022-08-19T08:00:36.899Z,97599.58
2022-08-19T08:03:03.976Z,97595.82
2022-08-19T08:05:49.996Z,97597.14
2022-08-19T08:08:32.178Z,97590.95
2022-08-19T08:11:00.867Z,97587.71
2022-08-19T08:13:28.834Z,97591.38
2022-08-19T08:15:57.636Z,97583.01
2022-08-19T08:18:27.575Z,97579.98
2022-08-19T08:20:56.604Z,97575.36
2022-08-19T08:23:27.532Z,97572.07
2022-08-19T08:25:58.464Z,97567.45
2022-08-19T08:28:30.065Z,97567.42
2022-08-19T08:30:58.456Z,97565.02
2022-08-19T08:33:32.980Z,97565.70
2022-08-19T08:36:16.167Z,97559.91
2022-08-19T08:38:47.397Z,97564.65
2022-08-19T08:41:31.069Z,97566.98
2022-08-19T08:43:58.614Z,97569.03
2022-08-19T08:46:46.113Z,97571.66
2022-08-19T08:49:34.516Z,97567.83
2022-08-19T08:52:10.334Z,97558.14
2022-08-19T08:54:48.837Z,97559.09
2022-08-19T08:57:53.907Z,97553.71
2022-08-19T09:00:32.989Z,97553.16
2022-08-19T09:03:04.004Z,97549.44
2022-08-19T09:06:18.846Z,97540.59
2022-08-19T09:09:04.504Z,97537.52
2022-08-19T09:12:02.802Z,97538.35
2022-08-19T09:14:50.813Z,97534.97
2022-08-19T09:17:31.189Z,97533.95
2022-08-19T09:20:11.728Z,97529.35
2022-08-19T09:22:45.455Z,97528.54
2022-08-19T09:25:24.606Z,97525.06
2022-08-19T09:28:02.851Z,97525.56
2022-08-19T09:30:37.709Z,97523.98
2022-08-19T09:33:05.575Z,97527.27
2022-08-19T09:35:49.646Z,97524.59
2022-08-19T09:38:21.829Z,97523.55
2022-08-19T09:40:49.967Z,97524.00
2022-08-19T09:43:33.862Z,97520.70
2022-08-19T09:46:06.688Z,97527.02
2022-08-19T09:48:34.612Z,97525.76
2022-08-19T09:51:16.556Z,97521.45
2022-08-19T09:53:46.532Z,97522.67
2022-08-19T09:56:14.197Z,97522.34
2022-08-19T09:58:41.164Z,97520.52
2022-08-19T10:01:09.057Z,97523.10
2022-08-19T10:03:37.295Z,97521.16
2022-08-19T10:06:05.756Z,97518.34
2022-08-19T10:08:49.884Z,97515.81
2022-08-19T10:11:27.765Z,97512.54
2022-08-19T10:14:03.360Z,97507.00
2022-08-19T10:16:30.530Z,97503.80
2022-08-19T10:18:58.983Z,97499.19
2022-08-19T10:21:32.016Z,97498.40
2022-08-19T10:24:04.328Z,97501.52
2022-08-19T10:26:37.405Z,97494.89
2022-08-19T10:29:05.896Z,97492.98
2022-08-19T10:32:00.115Z,97488.75
2022-08-19T10:34:28.053Z,97490.45
2022-08-19T10:37:01.295Z,97485.46
2022-08-19T10:39:32.696Z,97483.35
2022-08-19T10:42:13.449Z,97484.02
2022-08-19T10:44:41.297Z,97485.58
2022-08-19T10:47:17.901Z,97480.79
2022-08-19T10:50:14.040Z,97478.55
2022-08-19T10:52:48.912Z,97475.28
2022-08-19T10:55:42.527Z,97475.92
2022-08-19T10:58:16.166Z,97473.83
2022-08-19T11:00:44.094Z,97475.22
2022-08-19T11:03:11.589Z,97477.26
2022-08-19T11:05:40.075Z,97477.56
2022-08-19T11:08:22.228Z,97469.35
2022-08-19T11:11:00.870Z,97463.67
2022-08-19T11:13:36.134Z,97462.84
2022-08-19T11:16:26.502Z,97462.33
2022-08-19T11:18:58.712Z,97466.39
2022-08-19T11:21:33.968Z,97469.45
2022-08-19T11:24:07.024Z,97469.58
2022-08-19T11:26:36.271Z,97469.77
2022-08-19T11:29:04.722Z,97471.87
2022-08-19T11:31:35.842Z,97470.88
2022-08-19T11:34:07.345Z,97468.09
2022-08-19T11:36:38.763Z,97464.38
2022-08-19T11:39:08.164Z,97462.81
2022-08-19T11:41:35.140Z,97456.23
2022-08-19T11:44:04.810Z,97453.46
2022-08-19T11:46:32.282Z,97457.73
2022-08-19T11:49:01.032Z,97455.76
2022-08-19T11:51:30.108Z,97449.07
2022-08-19T11:53:59.377Z,97450.52
2022-08-19T11:56:28.068Z,97444.99
2022-08-19T11:58:57.220Z,97443.91
2022-08-19T12:01:26.156Z,97440.77
2022-08-19T12:03:56.283Z,97438.24
2022-08-19T12:06:34.556Z,97441.92
2022-08-19T12:09:06.435Z,97442.19
2022-08-19T12:11:34.584Z,97437.37
2022-08-19T12:14:01.729Z,97440.16
2022-08-19T12:16:31.033Z,97437.73
2022-08-19T12:19:04.229Z,97431.91
2022-08-19T12:21:35.307Z,97428.29
2022-08-19T12:24:05.492Z,97427.77
2022-08-19T12:26:33.727Z,97427.59
2022-08-19T12:29:23.334Z,97422.48
2022-08-19T12:31:52.024Z,97421.58
2022-08-19T12:34:20.460Z,97418.36
2022-08-19T12:36:49.496Z,97412.51
2022-08-19T12:39:16.402Z,97404.35
2022-08-19T12:41:54.282Z,97403.57
2022-08-19T12:44:29.495Z,97401.95
2022-08-19T12:46:59.776Z,97400.04
2022-08-19T12:49:54.290Z,97399.13
2022-08-19T12:52:17.116Z,97395.68
2022-08-19T12:54:54.612Z,97392.50
2022-08-19T12:57:31.866Z,97395.79
2022-08-19T13:00:21.432Z,97386.45
2022-08-19T13:02:52.108Z,97386.77
2022-08-19T13:05:23.341Z,97385.18
2022-08-19T13:07:56.466Z,97384.80
2022-08-19T13:10:28.140Z,97382.45
2022-08-19T13:12:55.873Z,97377.51
2022-08-19T13:15:24.474Z,97372.95
2022-08-19T13:17:54.077Z,97368.41
2022-08-19T13:20:22.482Z,97371.46
2022-08-19T13:22:49.650Z,97370.93
2022-08-19T13:25:17.912Z,97371.05
2022-08-19T13:27:44.828Z,97376.63
2022-08-19T13:30:33.567Z,97373.67
2022-08-19T13:33:12.519Z,97372.03
2022-08-19T13:35:50.616Z,97360.14
2022-08-19T13:38:21.358Z,97357.40
2022-08-19T13:40:52.242Z,97357.26
2022-08-19T13:43:24.638Z,97352.11
2022-08-19T13:45:56.430Z,97349.02
2022-08-19T13:48:25.647Z,97350.34
2022-08-19T13:50:52.513Z,97351.29
2022-08-19T13:53:19.370Z,97350.46
2022-08-19T13:55:46.888Z,97353.38
2022-08-19T13:58:14.876Z,97351.90
2022-08-19T14:00:45.802Z,97348.98
2022-08-19T14:03:12.701Z,97352.72
2022-08-19T14:05:40.054Z,97351.29
2022-08-19T14:08:07.623Z,97348.92
2022-08-19T14:10:34.482Z,97352.27
2022-08-19T14:13:03.979Z,97346.67
2022-08-19T14:15:31.915Z,97345.73
2022-08-19T14:17:59.079Z,97346.19
2022-08-19T14:20:26.952Z,97344.59
2022-08-19T14:22:55.071Z,97341.19
2022-08-19T14:25:27.202Z,97341.30
2022-08-19T14:27:55.372Z,97343.11
2022-08-19T14:30:31.944Z,97343.27
2022-08-19T14:33:01.867Z,97346.57
2022-08-19T14:35:30.688Z,97342.45
2022-08-19T14:37:58.541Z,97339.49
2022-08-19T14:40:29.798Z,97341.30
2022-08-19T14:43:04.131Z,97345.54
2022-08-19T14:45:36.698Z,97347.23
2022-08-19T14:48:08.829Z,97348.61
2022-08-19T14:50:45.900Z,97348.94
2022-08-19T14:53:13.479Z,97345.80
2022-08-19T14:55:45.749Z,97338.83
2022-08-19T14:58:28.817Z,97334.33
2022-08-19T15:01:00.060Z,97337.50
2022-08-19T15:03:28.764Z,97339.92
2022-08-19T15:05:57.735Z,97338.88
2022-08-19T15:08:25.331Z,97337.95
2022-08-19T15:10:53.447Z,97334.54
2022-08-19T15:13:20.753Z,97337.11
2022-08-19T15:15:48.676Z,97336.73
2022-08-19T15:18:15.501Z,97338.77
2022-08-19T15:20:43.824Z,97334.59
2022-08-19T15:23:18.580Z,97337.43
2022-08-19T15:25:46.036Z,97329.79
2022-08-19T15:28:13.462Z,97324.54
2022-08-19T15:30:40.828Z,97325.35
2022-08-19T15:33:08.271Z,97323.81
2022-08-19T15:35:35.324Z,97325.45
2022-08-19T15:38:02.346Z,97328.39
2022-08-19T15:40:29.329Z,97330.75
2022-08-19T15:42:56.433Z,97335.80
2022-08-19T15:45:32.416Z,97336.39
2022-08-19T15:48:02.259Z,97342.03
2022-08-19T15:50:33.381Z,97346.04
2022-08-19T15:53:05.464Z,97339.54
2022-08-19T15:55:36.352Z,97340.78
2022-08-19T15:58:30.013Z,97338.46
2022-08-19T16:01:24.360Z,97333.23
2022-08-19T16:04:15.656Z,97332.58
2022-08-19T16:06:56.098Z,97334.31
2022-08-19T16:09:28.527Z,97333.03
2022-08-19T16:12:04.519Z,97332.71
2022-08-19T16:14:34.657Z,97334.73
2022-08-19T16:17:01.892Z,97331.42
2022-08-19T16:19:28.794Z,97332.84
2022-08-19T16:21:56.545Z,97328.27
2022-08-19T16:24:27.348Z,97329.02
2022-08-19T16:26:55.524Z,97326.18
2022-08-19T16:29:34.124Z,97327.27
2022-08-19T16:32:10.250Z,97329.63
2022-08-19T16:34:41.869Z,97325.82
2022-08-19T16:37:10.024Z,97324.45
2022-08-19T16:39:38.250Z,97320.52
2022-08-19T16:42:07.620Z,97319.02
2022-08-19T16:44:38.672Z,97321.79
2022-08-19T16:47:05.836Z,97323.16
2022-08-19T16:49:53.241Z,97326.63
2022-08-19T16:52:20.551Z,97328.14
2022-08-19T16:54:47.900Z,97322.19
2022-08-19T16:57:16.264Z,97325.91
2022-08-19T16:59:48.504Z,97320.00
2022-08-19T17:02:20.581Z,97316.20
2022-08-19T17:04:57.344Z,97319.02
2022-08-19T17:07:33.089Z,97316.16
2022-08-19T17:10:04.403Z,97316.92
2022-08-19T17:12:32.218Z,97319.81
2022-08-19T17:15:04.675Z,97318.98
2022-08-19T17:17:31.603Z,97326.77
2022-08-19T17:20:00.783Z,97334.55
2022-08-19T17:22:27.844Z,97334.81
2022-08-19T17:24:56.224Z,97337.14
2022-08-19T17:27:31.517Z,97340.64
2022-08-19T17:30:02.285Z,97343.92
2022-08-19T17:32:34.362Z,97347.90
2022-08-19T17:35:03.953Z,97348.89
2022-08-19T17:37:31.352Z,97348.00
2022-08-19T17:39:58.382Z,97348.02
2022-08-19T17:42:25.908Z,97348.88
2022-08-19T17:44:52.741Z,97353.45
2022-08-19T17:47:20.534Z,97353.38
2022-08-19T17:49:47.779Z,97360.08
2022-08-19T17:52:14.596Z,97363.90
2022-08-19T17:54:41.502Z,97364.57
2022-08-19T17:57:09.028Z,97370.90
2022-08-19T17:59:36.899Z,97369.09
2022-08-19T18:02:07.033Z,97365.86
2022-08-19T18:04:38.399Z,97363.29
2022-08-19T18:07:05.847Z,97365.88
2022-08-19T18:09:41.694Z,97367.48
2022-08-19T18:12:13.251Z,97360.68
2022-08-19T18:14:41.203Z,97363.51
2022-08-19T18:17:11.776Z,97362.16
2022-08-19T18:19:43.302Z,97364.67
2022-08-19T18:22:19.860Z,97368.12
2022-08-19T18:24:46.654Z,97371.18
2022-08-19T18:27:14.093Z,97372.27
2022-08-19T18:29:41.171Z,97378.84
2022-08-19T18:32:14.546Z,97378.92
2022-08-19T18:34:43.203Z,97381.70
2022-08-19T18:37:11.616Z,97379.26
2022-08-19T18:39:57.337Z,97381.41
2022-08-19T18:42:43.645Z,97381.27
2022-08-19T18:45:29.646Z,97379.86
2022-08-19T18:48:26.987Z,97380.11
2022-08-19T18:51:00.482Z,97386.17
2022-08-19T18:53:31.639Z,97392.89
2022-08-19T18:55:59.107Z,97387.84
2022-08-19T18:58:32.571Z,97389.31
2022-08-19T19:01:25.743Z,97394.04
2022-08-19T19:03:54.733Z,97396.27
2022-08-19T19:06:29.900Z,97399.55
2022-08-19T19:08:57.568Z,97402.19
2022-08-19T19:11:33.239Z,97404.14
2022-08-19T19:14:03.058Z,97404.48
2022-08-19T19:16:31.192Z,97406.08
2022-08-19T19:18:58.705Z,97407.20
2022-08-19T19:21:26.937Z,97407.92
2022-08-19T19:23:55.464Z,97406.93
2022-08-19T19:26:22.712Z,97407.50
2022-08-19T19:28:50.858Z,97409.11
2022-08-19T19:31:22.663Z,97412.49
2022-08-19T19:33:49.819Z,97414.52
2022-08-19T19:36:17.848Z,97415.34
2022-08-19T19:38:48.676Z,97416.18
2022-08-19T19:41:23.873Z,97417.42
2022-08-19T19:44:30.145Z,97420.82
2022-08-19T19:46:47.604Z,97427.20
2022-08-19T19:49:14.585Z,97432.98
2022-08-19T19:51:43.484Z,97435.98
2022-08-19T19:54:13.149Z,97438.23
2022-08-19T19:56:44.822Z,97433.48
2022-08-19T19:59:12.058Z,97441.00
2022-08-19T20:01:40.079Z,97443.89
2022-08-19T20:04:16.259Z,97445.11
2022-08-19T20:06:45.686Z,97444.39
2022-08-19T20:09:19.295Z,97447.70
2022-08-19T20:11:55.828Z,97449.86
2022-08-19T20:14:32.848Z,97450.27
2022-08-19T20:17:00.088Z,97449.10
2022-08-19T20:19:33.613Z,97449.14
2022-08-19T20:22:00.757Z,97455.02
2022-08-19T20:24:34.675Z,97452.17
2022-08-19T20:27:03.520Z,97454.33
2022-08-19T20:29:39.468Z,97456.92
2022-08-19T20:32:10.092Z,97456.77
2022-08-19T20:34:38.571Z,97460.46
2022-08-19T20:37:08.444Z,97460.86
2022-08-19T20:39:35.317Z,97462.58
2022-08-19T20:42:03.098Z,97460.97
2022-08-19T20:44:30.042Z,97460.98
2022-08-19T20:47:00.505Z,97456.70
2022-08-19T20:49:30.011Z,97458.41
2022-08-19T20:51:57.714Z,97463.45
2022-08-19T20:54:25.420Z,97460.52
2022-08-19T20:56:53.316Z,97461.33
2022-08-19T20:59:21.372Z,97457.04
2022-08-19T21:01:51.205Z,97459.67
2022-08-19T21:04:20.614Z,97461.69
2022-08-19T21:06:49.157Z,97464.68
2022-08-19T21:09:16.052Z,97465.21
2022-08-19T21:11:43.520Z,97466.63
2022-08-19T21:14:10.575Z,97463.31
2022-08-19T21:16:37.468Z,97460.95
2022-08-19T21:19:04.421Z,97456.73
2022-08-19T21:21:32.617Z,97458.02
2022-08-19T21:23:59.479Z,97455.15
2022-08-19T21:26:27.475Z,97460.41
2022-08-19T21:28:54.268Z,97464.01
2022-08-19T21:31:21.599Z,97465.38
2022-08-19T21:33:48.431Z,97462.55
2022-08-19T21:36:15.274Z,97457.79
2022-08-19T21:38:42.323Z,97460.30
2022-08-19T21:41:09.153Z,97461.48
2022-08-19T21:43:37.365Z,97459.10
2022-08-19T21:46:05.412Z,97462.70
2022-08-19T21:48:32.412Z,97464.52
2022-08-19T21:50:59.240Z,97464.60
2022-08-19T21:53:31.671Z,97459.81
2022-08-19T21:56:05.944Z,97463.56
2022-08-19T21:58:33.572Z,97462.23
2022-08-19T22:01:05.139Z,97468.14
2022-08-19T22:03:36.714Z,97464.86
2022-08-19T22:06:04.328Z,97464.77
2022-08-19T22:08:31.589Z,97468.02
2022-08-19T22:11:01.284Z,97465.18
2022-08-19T22:13:35.925Z,97463.09
2022-08-19T22:16:07.735Z,97458.10
2022-08-19T22:18:34.800Z,97454.68
2022-08-19T22:21:04.520Z,97454.13
2022-08-19T22:23:33.257Z,97450.05
2022-08-19T22:26:00.629Z,97448.95
2022-08-19T22:28:28.002Z,97448.12
2022-08-19T22:30:55.460Z,97448.66
2022-08-19T22:33:25.218Z,97448.63
2022-08-19T22:35:52.977Z,97444.05
2022-08-19T22:38:19.824Z,97448.98
2022-08-19T22:40:50.573Z,97456.71
2022-08-19T22:43:25.721Z,97453.98
2022-08-19T22:45:55.417Z,97456.88
2022-08-19T22:48:26.546Z,97452.35
2022-08-19T22:51:13.250Z,97447.48
2022-08-19T22:53:45.980Z,97442.52
2022-08-19T22:56:15.463Z,97436.98
2022-08-19T22:58:43.459Z,97435.52
2022-08-19T23:01:24.842Z,97434.98
2022-08-19T23:03:59.244Z,97433.66
2022-08-19T23:06:33.856Z,97430.58
2022-08-19T23:09:06.092Z,97427.47
2022-08-19T23:11:41.974Z,97425.06
2022-08-19T23:14:11.948Z,97425.18
2022-08-19T23:16:41.623Z,97426.01
2022-08-19T23:19:09.564Z,97426.92
2022-08-19T23:21:41.572Z,97428.64
2022-08-19T23:24:10.451Z,97421.89
2022-08-19T23:26:37.945Z,97420.40
2022-08-19T23:29:24.283Z,97417.83
2022-08-19T23:31:51.367Z,97417.55
2022-08-19T23:34:18.239Z,97417.55
2022-08-19T23:36:45.692Z,97418.66
2022-08-19T23:39:12.533Z,97421.09
2022-08-19T23:41:39.344Z,97425.36
2022-08-19T23:44:06.196Z,97431.70
2022-08-19T23:46:54.455Z,97427.73
2022-08-19T23:49:24.498Z,97430.73
2022-08-19T23:51:53.680Z,97426.62
2022-08-19T23:54:21.065Z,97426.35
2022-08-19T23:56:47.922Z,97427.02
2022-08-19T23:59:15.373Z,97425.98
